CCX6 weather

Comox Seaplane Base
Comox, British Columbia, Canada

Public forecast

Using degrees Celsius for public forecast. Weather courtesy of forecast.io.

Closest aviation weather report (METAR) to Comox Seaplane Base

Closest report is Comox Airport, 3.0 nm (5.6 km) NE. Retrieved 2019/12/15 04:00 UTC (48 minutes ago):

CYQQ 150400Z 29002KT 20SM FEW015 OVC034 05/03 A3003 RMK SC1SC8 SLP170

Closest aviation forecast (TAF) to Comox Seaplane Base

Closest forecast is Comox Airport, 3.0 nm (5.6 km) NE. Retrieved 2019-12-15 00:42 UTC (4 hours ago):

TAF CYQQ 142339Z 1500/1524 36006KT P6SM SCT015 BKN040 TEMPO 1500/1510 FEW015 SCT040 BECMG 1500/1502 VRB03KT FM151000 28005KT P6SM SCT007 OVC012 FM151600 VRB03KT P6SM FEW012 SCT040 FM151800 30005KT P6SM SCT015 BKN040 RMK NXT FCST BY 150600Z